Time;durP1;ratioP1;P1;durP2;ratioP2;P2;SDS_P1;SDS_P2;PMS_P1;PMS_P2;Temp;Humidity;BMP_temperature;BMP_pressure;BME280_temperature;BME280_humidity;BME280_pressure;Samples;Min_cycle;Max_cycle;Signal;HPM_P1;HPM_P2
2023/08/08 00:02:08;;;;;;;2.10;2.00;;;;;;;;;;5094046;28;20440;-65
2023/08/08 00:04:36;;;;;;;2.30;2.20;;;;;;;;;;5092620;28;20428;-65
2023/08/08 00:07:02;;;;;;;3.10;2.90;;;;;;;;;;5093909;28;20968;-65
2023/08/08 00:09:28;;;;;;;2.17;2.00;;;;;;;;;;5093762;28;20403;-65
2023/08/08 00:11:54;;;;;;;2.33;2.13;;;;;;;;;;5093372;28;20464;-65
2023/08/08 00:14:20;;;;;;;3.03;2.37;;;;;;;;;;5093465;28;20431;-65
2023/08/08 00:16:46;;;;;;;2.40;2.20;;;;;;;;;;5093603;28;20498;-65
2023/08/08 00:19:14;;;;;;;3.43;2.50;;;;;;;;;;5093465;28;20864;-64
2023/08/08 00:21:40;;;;;;;2.30;2.20;;;;;;;;;;5093461;28;20480;-64
2023/08/08 00:24:06;;;;;;;2.03;1.90;;;;;;;;;;5092448;28;20439;-65
2023/08/08 00:26:32;;;;;;;2.20;2.00;;;;;;;;;;5093170;28;20981;-64
2023/08/08 00:28:58;;;;;;;3.43;2.57;;;;;;;;;;5091755;28;20441;-65
2023/08/08 00:31:24;;;;;;;1.97;1.90;;;;;;;;;;5093355;28;20511;-65
2023/08/08 00:33:50;;;;;;;2.60;2.40;;;;;;;;;;5093016;28;20435;-64
2023/08/08 00:36:19;;;;;;;2.30;2.10;;;;;;;;;;5092002;28;20411;-64
2023/08/08 00:38:45;;;;;;;2.73;2.20;;;;;;;;;;5092970;28;20422;-64
2023/08/08 00:41:10;;;;;;;3.33;2.10;;;;;;;;;;5092942;28;20423;-64
2023/08/08 00:43:36;;;;;;;2.13;2.03;;;;;;;;;;5093079;28;20402;-64
2023/08/08 00:46:02;;;;;;;2.07;1.97;;;;;;;;;;5092723;28;20484;-64
2023/08/08 00:48:28;;;;;;;2.00;1.90;;;;;;;;;;5092800;28;20451;-64
2023/08/08 00:50:54;;;;;;;3.60;2.10;;;;;;;;;;5092879;28;20443;-64
2023/08/08 00:53:23;;;;;;;6.53;2.20;;;;;;;;;;5092783;28;20809;-64
2023/08/08 00:55:49;;;;;;;6.83;2.00;;;;;;;;;;5091562;28;20781;-64
2023/08/08 00:58:20;;;;;;;2.30;2.20;;;;;;;;;;5093095;28;20430;-64
2023/08/08 01:00:46;;;;;;;2.50;1.83;;;;;;;;;;5091438;28;20456;-65
2023/08/08 01:03:12;;;;;;;4.43;2.20;;;;;;;;;;5091747;28;20503;-65
2023/08/08 01:05:54;;;;;;;2.47;2.33;;;;;;;;;;5092426;28;20501;-65
2023/08/08 01:08:25;;;;;;;2.00;1.90;;;;;;;;;;5092631;28;20436;-65
2023/08/08 01:10:51;;;;;;;2.60;2.40;;;;;;;;;;5091204;28;20418;-64
2023/08/08 01:13:18;;;;;;;2.53;2.33;;;;;;;;;;5092256;28;20480;-64
2023/08/08 01:15:45;;;;;;;3.17;1.90;;;;;;;;;;5092536;28;20882;-64
2023/08/08 01:18:14;;;;;;;2.40;2.30;;;;;;;;;;5091400;28;20479;-65
2023/08/08 01:20:40;;;;;;;2.93;1.97;;;;;;;;;;5092364;28;20939;-63
2023/08/08 01:23:19;;;;;;;7.00;2.10;;;;;;;;;;5092398;28;20458;-64
2023/08/08 01:25:46;;;;;;;2.50;2.37;;;;;;;;;;5092309;28;20537;-65
2023/08/08 01:28:12;;;;;;;2.93;2.10;;;;;;;;;;5092235;28;20413;-64
2023/08/08 01:30:39;;;;;;;2.20;2.10;;;;;;;;;;5090835;28;20479;-64
2023/08/08 01:33:09;;;;;;;14.23;2.10;;;;;;;;;;5092182;28;20496;-65
2023/08/08 01:35:39;;;;;;;2.87;1.83;;;;;;;;;;5092216;28;20434;-64
2023/08/08 01:38:11;;;;;;;2.77;2.00;;;;;;;;;;5092237;28;20482;-64
2023/08/08 01:40:38;;;;;;;1.73;1.70;;;;;;;;;;5092026;28;20471;-64
2023/08/08 01:43:04;;;;;;;4.97;2.03;;;;;;;;;;5092197;28;20409;-64
2023/08/08 01:45:30;;;;;;;3.30;1.80;;;;;;;;;;5092082;28;20424;-65
2023/08/08 01:47:59;;;;;;;6.10;2.20;;;;;;;;;;5092171;28;20409;-64
2023/08/08 01:50:25;;;;;;;3.97;2.10;;;;;;;;;;5092334;28;20414;-65
2023/08/08 01:52:51;;;;;;;2.13;1.80;;;;;;;;;;5092193;28;20437;-64
2023/08/08 01:55:17;;;;;;;2.70;2.03;;;;;;;;;;5091773;28;20786;-65
2023/08/08 01:57:43;;;;;;;2.20;2.10;;;;;;;;;;5091995;28;20502;-65
2023/08/08 02:00:09;;;;;;;3.90;2.37;;;;;;;;;;5092089;28;20900;-65
2023/08/08 02:02:36;;;;;;;2.27;2.10;;;;;;;;;;5090759;28;20831;-65
2023/08/08 02:05:04;;;;;;;2.43;2.23;;;;;;;;;;5090612;28;20419;-64
2023/08/08 02:07:30;;;;;;;3.80;1.90;;;;;;;;;;5091967;28;20412;-64
2023/08/08 02:09:56;;;;;;;8.73;2.50;;;;;;;;;;5091914;28;20413;-64
2023/08/08 02:12:22;;;;;;;2.50;2.30;;;;;;;;;;5092138;28;20440;-64
2023/08/08 02:14:48;;;;;;;7.03;2.17;;;;;;;;;;5093384;28;20455;-64
2023/08/08 02:17:14;;;;;;;2.53;2.33;;;;;;;;;;5095892;28;20451;-64
2023/08/08 02:19:40;;;;;;;3.30;2.90;;;;;;;;;;5095675;28;20980;-64
2023/08/08 02:22:06;;;;;;;3.37;2.73;;;;;;;;;;5094654;28;20884;-64
2023/08/08 02:24:34;;;;;;;5.90;2.70;;;;;;;;;;5094063;28;20558;-64
2023/08/08 02:27:00;;;;;;;2.40;2.30;;;;;;;;;;5096655;28;20416;-64
2023/08/08 02:29:26;;;;;;;2.30;2.27;;;;;;;;;;5095704;28;20965;-64
2023/08/08 02:31:55;;;;;;;2.50;2.30;;;;;;;;;;5095723;28;20758;-64
2023/08/08 02:34:25;;;;;;;4.00;1.90;;;;;;;;;;5095599;28;20573;-64
2023/08/08 02:36:52;;;;;;;2.73;2.00;;;;;;;;;;5095772;28;20954;-65
2023/08/08 02:39:18;;;;;;;2.40;2.30;;;;;;;;;;5094481;28;20461;-65
2023/08/08 02:41:43;;;;;;;3.47;2.60;;;;;;;;;;5095465;28;20441;-65
2023/08/08 02:44:13;;;;;;;4.90;2.20;;;;;;;;;;5096098;28;20789;-64
2023/08/08 02:46:39;;;;;;;2.70;2.50;;;;;;;;;;5095634;28;20424;-64
2023/08/08 02:49:05;;;;;;;3.73;1.80;;;;;;;;;;5095757;28;20409;-65
2023/08/08 02:51:31;;;;;;;2.67;2.37;;;;;;;;;;5095640;28;20478;-66
2023/08/08 02:53:57;;;;;;;3.60;2.50;;;;;;;;;;5095528;28;20429;-63
2023/08/08 02:56:23;;;;;;;2.23;2.13;;;;;;;;;;5095443;28;20438;-63
2023/08/08 02:58:49;;;;;;;4.73;2.03;;;;;;;;;;5095462;28;20413;-63
2023/08/08 03:01:18;;;;;;;3.40;1.90;;;;;;;;;;5095410;28;20892;-63
2023/08/08 03:03:44;;;;;;;4.50;1.93;;;;;;;;;;5094050;28;20949;-63
2023/08/08 03:06:10;;;;;;;3.67;2.20;;;;;;;;;;5095400;28;20409;-63
2023/08/08 03:08:36;;;;;;;5.07;2.13;;;;;;;;;;5095164;28;20409;-63
2023/08/08 03:11:04;;;;;;;2.27;2.03;;;;;;;;;;5094540;28;20440;-63
2023/08/08 03:13:30;;;;;;;2.50;2.00;;;;;;;;;;5095059;28;20511;-63
2023/08/08 03:15:56;;;;;;;1.97;1.87;;;;;;;;;;5095096;28;20875;-63
2023/08/08 03:18:22;;;;;;;2.33;2.07;;;;;;;;;;5094970;28;20459;-63
2023/08/08 03:20:51;;;;;;;3.60;2.40;;;;;;;;;;5094434;28;20475;-63
2023/08/08 03:23:17;;;;;;;4.83;3.47;;;;;;;;;;5093707;28;20429;-63
2023/08/08 03:25:43;;;;;;;2.40;2.20;;;;;;;;;;5093929;28;20409;-63
2023/08/08 03:28:11;;;;;;;5.63;2.33;;;;;;;;;;5094752;28;20788;-63
2023/08/08 03:30:38;;;;;;;2.70;2.50;;;;;;;;;;5094619;28;20474;-63
2023/08/08 03:33:04;;;;;;;6.63;2.60;;;;;;;;;;5094651;28;20884;-63
2023/08/08 03:35:30;;;;;;;5.60;2.60;;;;;;;;;;5094625;28;20441;-63
2023/08/08 03:37:56;;;;;;;2.50;2.40;;;;;;;;;;5094600;28;20864;-63
2023/08/08 03:40:24;;;;;;;2.40;2.30;;;;;;;;;;5094703;28;20444;-63
2023/08/08 03:42:50;;;;;;;2.33;2.10;;;;;;;;;;5093317;28;20451;-63
2023/08/08 03:45:16;;;;;;;2.57;2.10;;;;;;;;;;5094330;28;20405;-63
2023/08/08 03:47:42;;;;;;;7.03;2.10;;;;;;;;;;5094414;28;20410;-63
2023/08/08 03:50:10;;;;;;;6.90;2.10;;;;;;;;;;5094356;28;20398;-63
2023/08/08 03:52:38;;;;;;;3.87;1.93;;;;;;;;;;5094375;28;20775;-63
2023/08/08 03:55:04;;;;;;;5.90;2.43;;;;;;;;;;5094355;28;20493;-63
2023/08/08 03:57:30;;;;;;;4.00;2.17;;;;;;;;;;5094027;28;20445;-63
2023/08/08 03:59:56;;;;;;;4.03;2.10;;;;;;;;;;5093916;28;20449;-63
2023/08/08 04:02:22;;;;;;;13.37;8.40;;;;;;;;;;5094072;28;20429;-63
2023/08/08 04:04:48;;;;;;;20.27;16.53;;;;;;;;;;5093915;28;20413;-63
2023/08/08 04:07:17;;;;;;;5.33;5.10;;;;;;;;;;5093996;28;20776;-63
2023/08/08 04:09:43;;;;;;;6.87;4.43;;;;;;;;;;5092423;28;20408;-63
2023/08/08 04:12:09;;;;;;;4.40;2.60;;;;;;;;;;5093651;28;20912;-63
2023/08/08 04:14:37;;;;;;;4.17;2.33;;;;;;;;;;5093671;28;20528;-63
2023/08/08 04:17:04;;;;;;;1.77;1.77;;;;;;;;;;5093806;28;20417;-63
2023/08/08 04:19:33;;;;;;;1.97;1.87;;;;;;;;;;5093537;28;20477;-63
2023/08/08 04:21:59;;;;;;;2.73;1.90;;;;;;;;;;5093393;28;20428;-63
2023/08/08 04:24:25;;;;;;;6.00;2.30;;;;;;;;;;5092317;28;20441;-63
2023/08/08 04:26:51;;;;;;;5.30;2.37;;;;;;;;;;5093642;28;20440;-63
2023/08/08 04:29:20;;;;;;;6.00;2.53;;;;;;;;;;5093530;28;20920;-63
2023/08/08 04:31:48;;;;;;;43.40;6.87;;;;;;;;;;5092834;28;20417;-63
2023/08/08 04:34:14;;;;;;;3.67;2.20;;;;;;;;;;5092255;28;20975;-63
2023/08/08 04:36:40;;;;;;;2.03;1.90;;;;;;;;;;5093470;28;20523;-63
2023/08/08 04:39:06;;;;;;;2.20;1.80;;;;;;;;;;5093253;28;20465;-62
2023/08/08 04:41:37;;;;;;;2.10;2.10;;;;;;;;;;5093280;28;20782;-62
2023/08/08 04:44:05;;;;;;;4.10;2.70;;;;;;;;;;5093223;28;20944;-63
2023/08/08 04:46:31;;;;;;;5.00;3.37;;;;;;;;;;5093245;28;20436;-63
2023/08/08 04:48:57;;;;;;;3.00;2.80;;;;;;;;;;5092036;28;20860;-63
2023/08/08 04:51:23;;;;;;;2.73;2.60;;;;;;;;;;5093055;28;20409;-63
2023/08/08 04:53:49;;;;;;;4.33;2.20;;;;;;;;;;5093002;28;20433;-63
2023/08/08 04:56:15;;;;;;;4.30;2.50;;;;;;;;;;5093093;28;20462;-63
2023/08/08 04:58:41;;;;;;;3.60;3.30;;;;;;;;;;5093044;28;20419;-63
2023/08/08 05:01:08;;;;;;;4.53;2.50;;;;;;;;;;5091541;28;20559;-62
2023/08/08 05:03:34;;;;;;;4.83;2.33;;;;;;;;;;5092966;28;20421;-63
2023/08/08 05:06:01;;;;;;;3.70;2.70;;;;;;;;;;5092936;28;20397;-63
2023/08/08 05:08:30;;;;;;;3.20;2.87;;;;;;;;;;5093157;28;20453;-63
2023/08/08 05:10:55;;;;;;;3.67;3.13;;;;;;;;;;5091568;28;20500;-63
2023/08/08 05:13:21;;;;;;;2.70;2.50;;;;;;;;;;5092831;28;20536;-63
2023/08/08 05:15:47;;;;;;;4.00;2.77;;;;;;;;;;5092743;28;20424;-63
2023/08/08 05:18:16;;;;;;;2.47;2.37;;;;;;;;;;5092992;28;20457;-63
2023/08/08 05:20:42;;;;;;;2.90;2.70;;;;;;;;;;5092292;28;20898;-63
2023/08/08 05:23:08;;;;;;;6.50;2.83;;;;;;;;;;5092684;28;20904;-63
2023/08/08 05:25:36;;;;;;;2.77;2.57;;;;;;;;;;5092714;28;20429;-63
2023/08/08 05:28:04;;;;;;;5.70;2.70;;;;;;;;;;5092461;28;20432;-63
2023/08/08 05:30:30;;;;;;;5.93;1.60;;;;;;;;;;5092183;28;20436;-63
2023/08/08 05:32:56;;;;;;;3.07;2.03;;;;;;;;;;5092610;28;20476;-63
2023/08/08 05:35:22;;;;;;;2.27;2.00;;;;;;;;;;5091027;28;20445;-63
2023/08/08 05:37:50;;;;;;;3.23;2.90;;;;;;;;;;5092260;28;20801;-63
2023/08/08 05:40:19;;;;;;;4.13;3.67;;;;;;;;;;5092149;28;20476;-63
2023/08/08 05:42:45;;;;;;;2.37;2.37;;;;;;;;;;5092200;28;20410;-63
2023/08/08 05:45:13;;;;;;;1.90;1.80;;;;;;;;;;5092138;28;20487;-63
2023/08/08 05:47:39;;;;;;;5.73;2.10;;;;;;;;;;5091256;28;20447;-63
2023/08/08 05:50:06;;;;;;;2.10;2.00;;;;;;;;;;5094450;28;20412;-63
2023/08/08 05:52:32;;;;;;;13.20;2.23;;;;;;;;;;5096664;28;20436;-63
2023/08/08 05:54:59;;;;;;;1.87;1.87;;;;;;;;;;5096474;28;20417;-63
2023/08/08 05:57:27;;;;;;;1.80;1.70;;;;;;;;;;5096502;28;20412;-63
2023/08/08 05:59:54;;;;;;;2.20;1.97;;;;;;;;;;5096136;28;20473;-63
2023/08/08 06:02:20;;;;;;;4.37;2.20;;;;;;;;;;5096189;28;20409;-63
2023/08/08 06:04:45;;;;;;;8.63;2.77;;;;;;;;;;5096296;28;20443;-63
2023/08/08 06:07:14;;;;;;;2.07;1.97;;;;;;;;;;5095110;28;20468;-63
2023/08/08 06:09:42;;;;;;;1.80;1.73;;;;;;;;;;5096083;28;20444;-63
2023/08/08 06:12:08;;;;;;;1.60;1.60;;;;;;;;;;5095918;28;20448;-63
2023/08/08 06:14:34;;;;;;;3.70;2.30;;;;;;;;;;5096173;28;20940;-63
2023/08/08 06:17:00;;;;;;;2.13;2.00;;;;;;;;;;5096311;28;20385;-63
2023/08/08 06:19:29;;;;;;;2.87;1.67;;;;;;;;;;5095658;28;20541;-63
2023/08/08 06:21:57;;;;;;;2.30;2.20;;;;;;;;;;5096039;28;20511;-63
2023/08/08 06:24:23;;;;;;;2.10;2.00;;;;;;;;;;5094261;28;20453;-63
2023/08/08 06:26:51;;;;;;;2.00;1.90;;;;;;;;;;5094866;28;20511;-63
2023/08/08 06:29:17;;;;;;;4.27;2.27;;;;;;;;;;5093688;28;20452;-63
2023/08/08 06:31:43;;;;;;;1.73;1.73;;;;;;;;;;5094868;28;20997;-63
2023/08/08 06:34:09;;;;;;;2.17;2.07;;;;;;;;;;5094806;28;20975;-63
2023/08/08 06:36:35;;;;;;;2.07;1.97;;;;;;;;;;5095458;28;20420;-63
2023/08/08 06:39:01;;;;;;;2.20;1.90;;;;;;;;;;5095557;28;20455;-63
2023/08/08 06:41:27;;;;;;;2.07;1.97;;;;;;;;;;5095517;28;20442;-63
2023/08/08 06:43:55;;;;;;;2.03;2.00;;;;;;;;;;5095579;28;20916;-64
2023/08/08 06:46:22;;;;;;;2.20;2.00;;;;;;;;;;5095153;28;20461;-64
2023/08/08 06:48:52;;;;;;;1.80;1.70;;;;;;;;;;5095334;28;20450;-64
2023/08/08 06:51:21;;;;;;;1.83;1.83;;;;;;;;;;5095257;28;20439;-64
2023/08/08 06:53:47;;;;;;;2.93;2.73;;;;;;;;;;5095495;28;20438;-64
2023/08/08 06:56:13;;;;;;;3.07;1.63;;;;;;;;;;5094749;28;20454;-64
2023/08/08 06:58:39;;;;;;;2.20;2.10;;;;;;;;;;5095464;28;20826;-64
2023/08/08 07:01:05;;;;;;;34.27;15.83;;;;;;;;;;5093688;28;20497;-64
2023/08/08 07:03:33;;;;;;;2.20;2.00;;;;;;;;;;5095126;28;20412;-65
2023/08/08 07:06:00;;;;;;;3.13;2.93;;;;;;;;;;5094844;28;20911;-65
2023/08/08 07:08:26;;;;;;;161.03;86.83;;;;;;;;;;5094863;28;20967;-65
2023/08/08 07:10:52;;;;;;;29.27;14.40;;;;;;;;;;5094806;28;20420;-65
2023/08/08 07:13:21;;;;;;;2.70;2.60;;;;;;;;;;5094940;28;20443;-65
2023/08/08 07:15:47;;;;;;;4.53;2.00;;;;;;;;;;5094585;28;20432;-65
2023/08/08 07:18:13;;;;;;;1.70;1.60;;;;;;;;;;5095078;28;20733;-65
2023/08/08 07:20:39;;;;;;;1.83;1.70;;;;;;;;;;5094838;28;20468;-65
2023/08/08 07:23:05;;;;;;;1.67;1.67;;;;;;;;;;5094899;28;20405;-64
2023/08/08 07:25:31;;;;;;;2.20;1.93;;;;;;;;;;5094715;28;20431;-64
2023/08/08 07:27:59;;;;;;;4.70;1.50;;;;;;;;;;5094700;28;20781;-64
2023/08/08 07:30:26;;;;;;;4.93;1.43;;;;;;;;;;5095068;28;20429;-64
2023/08/08 07:32:54;;;;;;;2.10;1.30;;;;;;;;;;5094991;28;20457;-64
2023/08/08 07:35:20;;;;;;;1.93;1.50;;;;;;;;;;5094607;28;20895;-64
2023/08/08 07:37:46;;;;;;;3.40;1.90;;;;;;;;;;5094764;28;20919;-64
2023/08/08 07:40:18;;;;;;;1.47;1.40;;;;;;;;;;5093273;28;20464;-64
2023/08/08 07:42:48;;;;;;;1.80;1.50;;;;;;;;;;5094297;28;20413;-64
2023/08/08 07:45:14;;;;;;;3.30;1.60;;;;;;;;;;5094249;28;20421;-64
2023/08/08 07:47:40;;;;;;;1.87;1.87;;;;;;;;;;5094437;28;20798;-64
2023/08/08 07:50:08;;;;;;;1.40;1.30;;;;;;;;;;5093114;28;20916;-64
2023/08/08 07:52:34;;;;;;;1.47;1.37;;;;;;;;;;5093025;28;20443;-65
2023/08/08 07:55:00;;;;;;;2.40;1.40;;;;;;;;;;5094291;28;20433;-65
2023/08/08 07:57:27;;;;;;;1.67;1.57;;;;;;;;;;5094393;28;20699;-65
2023/08/08 07:59:53;;;;;;;1.60;1.50;;;;;;;;;;5093106;28;20510;-64
2023/08/08 08:02:19;;;;;;;2.50;1.80;;;;;;;;;;5094024;28;20828;-65
2023/08/08 08:04:46;;;;;;;7.10;1.80;;;;;;;;;;5094042;28;20411;-65
2023/08/08 08:07:12;;;;;;;1.40;1.40;;;;;;;;;;5093996;28;20436;-65
2023/08/08 08:09:42;;;;;;;1.77;1.67;;;;;;;;;;5093981;28;20413;-64
2023/08/08 08:12:08;;;;;;;1.97;1.60;;;;;;;;;;5093661;28;20541;-64
2023/08/08 08:14:34;;;;;;;1.20;1.20;;;;;;;;;;5093843;28;20834;-64
2023/08/08 08:17:03;;;;;;;5.80;1.90;;;;;;;;;;5093797;28;20447;-64
2023/08/08 08:19:29;;;;;;;1.60;1.50;;;;;;;;;;5093582;28;20505;-64
2023/08/08 08:21:57;;;;;;;1.23;1.10;;;;;;;;;;5093366;28;20475;-64
2023/08/08 08:24:26;;;;;;;1.50;1.40;;;;;;;;;;5093792;28;20762;-64
2023/08/08 08:26:52;;;;;;;1.63;1.53;;;;;;;;;;5093413;28;20428;-64
2023/08/08 08:29:18;;;;;;;5.20;1.30;;;;;;;;;;5093744;28;20453;-64
2023/08/08 08:31:44;;;;;;;5.43;1.40;;;;;;;;;;5093399;28;20512;-65
2023/08/08 08:34:12;;;;;;;1.30;1.20;;;;;;;;;;5093491;28;20421;-64
2023/08/08 08:36:38;;;;;;;3.07;1.50;;;;;;;;;;5093456;28;20433;-65
2023/08/08 08:39:04;;;;;;;1.07;1.07;;;;;;;;;;5091781;28;20917;-65
2023/08/08 08:41:32;;;;;;;1.37;1.10;;;;;;;;;;5093260;28;20496;-64
2023/08/08 08:43:58;;;;;;;1.47;1.37;;;;;;;;;;5093535;28;20424;-64
2023/08/08 08:46:25;;;;;;;2.43;1.00;;;;;;;;;;5093153;28;20814;-64
2023/08/08 08:48:51;;;;;;;1.40;1.30;;;;;;;;;;5093061;28;20399;-65
2023/08/08 08:51:18;;;;;;;1.10;1.10;;;;;;;;;;5093732;28;20862;-64
2023/08/08 08:53:47;;;;;;;1.40;1.40;;;;;;;;;;5093321;28;20535;-64
2023/08/08 08:56:14;;;;;;;2.67;1.40;;;;;;;;;;5093323;28;20417;-65
2023/08/08 08:58:41;;;;;;;1.47;1.37;;;;;;;;;;5093109;28;20965;-64
2023/08/08 09:01:08;;;;;;;1.33;1.23;;;;;;;;;;5092767;28;20468;-64
2023/08/08 09:03:34;;;;;;;1.20;1.20;;;;;;;;;;5093101;28;20474;-65
2023/08/08 09:06:01;;;;;;;1.30;1.30;;;;;;;;;;5092830;28;20412;-64
2023/08/08 09:08:27;;;;;;;1.20;1.10;;;;;;;;;;5093113;28;20413;-65
2023/08/08 09:10:53;;;;;;;1.20;1.20;;;;;;;;;;5092598;28;20443;-64
2023/08/08 09:13:20;;;;;;;1.47;0.90;;;;;;;;;;5092825;28;20534;-65
2023/08/08 09:15:49;;;;;;;1.50;1.27;;;;;;;;;;5091448;28;20419;-65
2023/08/08 09:18:15;;;;;;;1.07;1.07;;;;;;;;;;5092645;28;20443;-65
2023/08/08 09:20:42;;;;;;;1.27;1.07;;;;;;;;;;5090946;28;20454;-65
2023/08/08 09:23:09;;;;;;;2.00;1.10;;;;;;;;;;5092098;28;20416;-65
2023/08/08 09:25:37;;;;;;;1.37;1.27;;;;;;;;;;5092052;28;20407;-65
2023/08/08 09:28:04;;;;;;;1.30;1.20;;;;;;;;;;5092642;28;20436;-64
2023/08/08 09:30:32;;;;;;;1.20;1.20;;;;;;;;;;5092402;28;20412;-65
2023/08/08 09:32:59;;;;;;;1.33;1.23;;;;;;;;;;5092407;28;20454;-65
2023/08/08 09:35:25;;;;;;;1.00;1.00;;;;;;;;;;5092608;28;20779;-64
2023/08/08 09:37:55;;;;;;;1.10;1.10;;;;;;;;;;5092557;28;21104;-65
2023/08/08 09:40:21;;;;;;;2.27;1.17;;;;;;;;;;5092191;28;20474;-65
2023/08/08 09:42:49;;;;;;;1.27;1.27;;;;;;;;;;5091100;28;20415;-64
2023/08/08 09:45:15;;;;;;;1.37;1.37;;;;;;;;;;5092397;28;20430;-65
2023/08/08 09:47:41;;;;;;;2.00;1.30;;;;;;;;;;5092336;28;20427;-65
2023/08/08 09:50:08;;;;;;;1.20;1.20;;;;;;;;;;5092276;28;20411;-65
2023/08/08 09:52:34;;;;;;;7.63;1.57;;;;;;;;;;5090633;28;20772;-65
2023/08/08 09:55:05;;;;;;;1.23;1.23;;;;;;;;;;5092467;28;20406;-65
2023/08/08 09:57:32;;;;;;;1.90;1.20;;;;;;;;;;5092522;28;20392;-65
2023/08/08 10:00:01;;;;;;;1.13;0.97;;;;;;;;;;5092341;28;20816;-65
2023/08/08 10:02:29;;;;;;;2.20;1.20;;;;;;;;;;5092193;28;20445;-65
2023/08/08 10:04:57;;;;;;;1.37;1.27;;;;;;;;;;5091998;28;20408;-65
2023/08/08 10:07:23;;;;;;;4.40;1.40;;;;;;;;;;5091931;28;20410;-65
2023/08/08 10:09:51;;;;;;;2.20;2.10;;;;;;;;;;5091860;28;20433;-65
2023/08/08 10:12:20;;;;;;;1.63;1.53;;;;;;;;;;5091684;28;20439;-65
2023/08/08 10:14:48;;;;;;;23.00;12.13;;;;;;;;;;5091878;28;20855;-65
2023/08/08 10:17:15;;;;;;;6.83;1.80;;;;;;;;;;5091716;28;20447;-65
2023/08/08 10:19:50;;;;;;;1.87;1.70;;;;;;;;;;5091603;28;20454;-65
2023/08/08 10:22:20;;;;;;;3.53;3.33;;;;;;;;;;5092191;28;20733;-64
2023/08/08 10:24:51;;;;;;;5.17;1.60;;;;;;;;;;5091999;28;20411;-64
2023/08/08 10:27:27;;;;;;;2.40;1.70;;;;;;;;;;5091744;28;20485;-64
2023/08/08 10:29:53;;;;;;;1.50;1.40;;;;;;;;;;5091962;28;20423;-65
2023/08/08 10:32:25;;;;;;;1.43;1.43;;;;;;;;;;5091892;28;20466;-64
2023/08/08 10:34:55;;;;;;;1.70;1.40;;;;;;;;;;5091883;28;20432;-64
2023/08/08 10:37:23;;;;;;;1.20;1.03;;;;;;;;;;5095700;28;21004;-64
2023/08/08 10:39:56;;;;;;;1.27;1.20;;;;;;;;;;5095470;28;21019;-64
2023/08/08 10:42:25;;;;;;;7.13;1.40;;;;;;;;;;5095676;28;20420;-64
2023/08/08 10:44:58;;;;;;;1.60;1.50;;;;;;;;;;5095507;28;20866;-64
2023/08/08 10:47:30;;;;;;;1.50;1.40;;;;;;;;;;5095364;28;20410;-64
2023/08/08 10:50:02;;;;;;;3.53;1.47;;;;;;;;;;5095125;28;20409;-64
2023/08/08 10:52:29;;;;;;;1.20;1.20;;;;;;;;;;5095266;28;20428;-65
2023/08/08 10:54:55;;;;;;;1.93;1.43;;;;;;;;;;5095127;28;20453;-65
2023/08/08 10:57:25;;;;;;;3.00;1.40;;;;;;;;;;5095252;28;20400;-65
2023/08/08 10:59:51;;;;;;;1.23;1.13;;;;;;;;;;5095027;28;20467;-64
2023/08/08 11:02:18;;;;;;;4.13;1.20;;;;;;;;;;5095456;28;20753;-65
2023/08/08 11:04:44;;;;;;;1.40;1.30;;;;;;;;;;5094775;28;20425;-65
2023/08/08 11:07:10;;;;;;;1.40;1.30;;;;;;;;;;5094843;28;20902;-65
2023/08/08 11:09:36;;;;;;;3.57;1.37;;;;;;;;;;5094953;28;20417;-65
2023/08/08 11:12:02;;;;;;;1.10;1.10;;;;;;;;;;5094863;28;20467;-65
2023/08/08 11:14:28;;;;;;;1.13;1.13;;;;;;;;;;5094810;28;20420;-65
2023/08/08 11:16:56;;;;;;;3.27;1.60;;;;;;;;;;5094629;28;20839;-64
2023/08/08 11:19:25;;;;;;;1.43;1.43;;;;;;;;;;5093426;28;20830;-65
2023/08/08 11:21:51;;;;;;;1.30;1.30;;;;;;;;;;5094728;28;20956;-64
2023/08/08 11:24:19;;;;;;;1.97;1.30;;;;;;;;;;5094618;28;20411;-64
2023/08/08 11:26:47;;;;;;;1.43;1.33;;;;;;;;;;5094573;28;21018;-63
2023/08/08 11:29:15;;;;;;;1.70;1.60;;;;;;;;;;5094075;28;20869;-64
2023/08/08 11:31:43;;;;;;;1.53;1.27;;;;;;;;;;5094319;28;20499;-64
2023/08/08 11:34:12;;;;;;;1.17;1.07;;;;;;;;;;5093299;28;20436;-64
2023/08/08 11:36:38;;;;;;;1.23;1.23;;;;;;;;;;5094557;28;20916;-64
2023/08/08 11:39:07;;;;;;;2.20;1.57;;;;;;;;;;5094455;28;20436;-64
2023/08/08 11:41:37;;;;;;;1.40;1.30;;;;;;;;;;5094353;28;20454;-64
2023/08/08 11:44:04;;;;;;;1.23;1.23;;;;;;;;;;5094561;28;20481;-64
2023/08/08 11:46:30;;;;;;;1.13;1.10;;;;;;;;;;5093954;28;20453;-64
2023/08/08 11:49:02;;;;;;;1.90;1.30;;;;;;;;;;5093834;28;20408;-64
2023/08/08 11:51:30;;;;;;;1.10;1.10;;;;;;;;;;5094196;28;20452;-64
2023/08/08 11:53:56;;;;;;;2.27;1.60;;;;;;;;;;5094112;28;20948;-65
2023/08/08 11:56:22;;;;;;;6.77;1.73;;;;;;;;;;5094116;28;20495;-64
2023/08/08 11:58:52;;;;;;;1.13;1.13;;;;;;;;;;5093882;28;20413;-65
2023/08/08 12:01:25;;;;;;;2.03;1.23;;;;;;;;;;5094077;28;20533;-65
2023/08/08 12:03:54;;;;;;;1.73;1.63;;;;;;;;;;5093980;28;20414;-65
2023/08/08 12:06:22;;;;;;;1.17;1.10;;;;;;;;;;5093891;28;20425;-65
2023/08/08 12:08:49;;;;;;;4.63;1.30;;;;;;;;;;5093678;28;20830;-65
2023/08/08 12:11:15;;;;;;;1.97;1.80;;;;;;;;;;5092407;28;20418;-64
2023/08/08 12:13:42;;;;;;;1.10;1.00;;;;;;;;;;5093737;28;20414;-65
2023/08/08 12:16:11;;;;;;;2.10;1.23;;;;;;;;;;5093859;28;20441;-64
2023/08/08 12:18:38;;;;;;;1.90;1.27;;;;;;;;;;5093668;28;20411;-65
2023/08/08 12:21:10;;;;;;;1.00;1.00;;;;;;;;;;5092396;28;20486;-65
2023/08/08 12:23:37;;;;;;;2.10;1.60;;;;;;;;;;5093416;28;20433;-65
2023/08/08 12:26:06;;;;;;;2.23;1.47;;;;;;;;;;5093618;28;20450;-65
2023/08/08 12:28:35;;;;;;;1.40;1.30;;;;;;;;;;5092016;28;20437;-65
2023/08/08 12:31:01;;;;;;;1.30;1.20;;;;;;;;;;5093273;28;20425;-65
2023/08/08 12:33:30;;;;;;;1.07;1.07;;;;;;;;;;5093333;28;20432;-65
2023/08/08 12:35:56;;;;;;;1.27;1.27;;;;;;;;;;5092006;28;20567;-65
2023/08/08 12:38:24;;;;;;;1.33;1.33;;;;;;;;;;5093382;28;20919;-65
2023/08/08 12:40:50;;;;;;;1.47;1.37;;;;;;;;;;5093050;28;20467;-65
2023/08/08 12:43:19;;;;;;;1.30;1.20;;;;;;;;;;5093124;28;20409;-65
2023/08/08 12:45:46;;;;;;;1.37;1.37;;;;;;;;;;5091739;28;20479;-64
2023/08/08 12:48:14;;;;;;;1.40;1.40;;;;;;;;;;5093069;28;20447;-65
2023/08/08 12:50:40;;;;;;;2.53;1.20;;;;;;;;;;5092962;28;20428;-65
2023/08/08 12:53:07;;;;;;;1.20;1.10;;;;;;;;;;5093201;28;20424;-65
2023/08/08 12:55:33;;;;;;;3.00;1.40;;;;;;;;;;5092772;28;20456;-65
2023/08/08 12:57:59;;;;;;;2.47;1.23;;;;;;;;;;5093037;28;20475;-65
2023/08/08 13:00:25;;;;;;;1.50;1.33;;;;;;;;;;5091462;28;21013;-65
2023/08/08 13:02:51;;;;;;;3.47;1.50;;;;;;;;;;5092533;28;20431;-65
2023/08/08 13:05:17;;;;;;;1.80;1.60;;;;;;;;;;5092799;28;20420;-65
2023/08/08 13:07:43;;;;;;;5.67;1.57;;;;;;;;;;5092720;28;20921;-65
2023/08/08 13:10:10;;;;;;;1.80;1.70;;;;;;;;;;5092667;28;20550;-65
2023/08/08 13:12:36;;;;;;;2.17;1.50;;;;;;;;;;5092507;28;20490;-65
2023/08/08 13:15:02;;;;;;;2.13;1.53;;;;;;;;;;5092619;28;20449;-65
2023/08/08 13:17:28;;;;;;;1.40;1.30;;;;;;;;;;5091367;28;20431;-65
2023/08/08 13:19:54;;;;;;;1.50;1.40;;;;;;;;;;5092366;28;20463;-65
2023/08/08 13:22:19;;;;;;;1.83;1.70;;;;;;;;;;5092398;28;20433;-65
2023/08/08 13:24:45;;;;;;;1.37;1.37;;;;;;;;;;5092386;28;20422;-65
2023/08/08 13:27:11;;;;;;;1.27;1.27;;;;;;;;;;5092338;28;20411;-65
2023/08/08 13:29:40;;;;;;;3.73;1.50;;;;;;;;;;5092312;28;20434;-65
2023/08/08 13:32:06;;;;;;;1.20;1.20;;;;;;;;;;5092307;28;20730;-65
2023/08/08 13:34:32;;;;;;;2.20;1.50;;;;;;;;;;5092426;28;20420;-65
2023/08/08 13:36:58;;;;;;;1.50;1.40;;;;;;;;;;5092273;28;20431;-65
2023/08/08 13:39:24;;;;;;;3.37;1.70;;;;;;;;;;5092264;28;20454;-65
2023/08/08 13:41:50;;;;;;;1.53;1.53;;;;;;;;;;5092255;28;20776;-65
2023/08/08 13:44:16;;;;;;;1.77;1.70;;;;;;;;;;5092045;28;20422;-65
2023/08/08 13:46:42;;;;;;;1.63;1.53;;;;;;;;;;5090992;28;20451;-65
2023/08/08 13:49:08;;;;;;;1.40;1.40;;;;;;;;;;5092318;28;20416;-65
2023/08/08 13:51:34;;;;;;;2.07;1.63;;;;;;;;;;5092252;28;20496;-65
2023/08/08 13:54:00;;;;;;;1.37;1.30;;;;;;;;;;5091947;28;20426;-65
2023/08/08 13:56:26;;;;;;;1.43;1.20;;;;;;;;;;5092336;28;20887;-65
2023/08/08 13:58:52;;;;;;;1.60;1.50;;;;;;;;;;5090801;28;20421;-65
2023/08/08 14:01:18;;;;;;;1.50;1.40;;;;;;;;;;5092082;28;20456;-65
2023/08/08 14:03:45;;;;;;;1.90;1.40;;;;;;;;;;5092048;28;20435;-65
2023/08/08 14:06:11;;;;;;;2.97;2.30;;;;;;;;;;5092043;28;20420;-65
2023/08/08 14:08:39;;;;;;;5.60;1.70;;;;;;;;;;5092001;28;20425;-65
2023/08/08 14:11:05;;;;;;;2.00;1.90;;;;;;;;;;5093855;28;20450;-65
2023/08/08 14:13:31;;;;;;;2.17;1.63;;;;;;;;;;5095840;28;20514;-65
2023/08/08 14:15:57;;;;;;;4.27;1.67;;;;;;;;;;5095911;28;20422;-64
2023/08/08 14:18:26;;;;;;;1.30;1.30;;;;;;;;;;5096232;28;20420;-65
2023/08/08 14:20:52;;;;;;;2.57;2.47;;;;;;;;;;5095837;28;20592;-65
2023/08/08 14:23:18;;;;;;;3.53;3.20;;;;;;;;;;5095696;28;20448;-65
2023/08/08 14:25:46;;;;;;;2.00;1.90;;;;;;;;;;5096035;28;20929;-65
2023/08/08 14:28:12;;;;;;;8.23;3.53;;;;;;;;;;5095974;28;20464;-65
2023/08/08 14:30:38;;;;;;;2.47;2.37;;;;;;;;;;5096340;28;20464;-65
2023/08/08 14:33:04;;;;;;;1.47;1.40;;;;;;;;;;5096371;28;20406;-65
2023/08/08 14:35:30;;;;;;;1.70;1.70;;;;;;;;;;5096726;28;20410;-65
2023/08/08 14:37:56;;;;;;;1.33;1.33;;;;;;;;;;5097447;28;20476;-65
2023/08/08 14:40:22;;;;;;;1.50;1.47;;;;;;;;;;5096761;28;20976;-65
2023/08/08 14:42:48;;;;;;;1.83;1.83;;;;;;;;;;5096710;28;20468;-65